sensor_id;sensor_type;location;lat;lon;timestamp;pressure;altitude;pressure_sealevel;temperature;humidity
51245;BME280;37840;47.562;18.738;2023-02-19T00:01:41;99797.69;;;11.62;61.23
51245;BME280;37840;47.562;18.738;2023-02-19T00:04:18;99794.63;;;11.56;61.32
51245;BME280;37840;47.562;18.738;2023-02-19T00:06:45;99786.13;;;11.51;61.74
51245;BME280;37840;47.562;18.738;2023-02-19T00:09:13;99781.66;;;11.51;61.75
51245;BME280;37840;47.562;18.738;2023-02-19T00:11:40;99775.38;;;11.52;61.58
51245;BME280;37840;47.562;18.738;2023-02-19T00:14:06;99771.97;;;11.50;61.62
51245;BME280;37840;47.562;18.738;2023-02-19T00:16:37;99773.66;;;11.51;61.57
51245;BME280;37840;47.562;18.738;2023-02-19T00:19:06;99766.88;;;11.47;61.87
51245;BME280;37840;47.562;18.738;2023-02-19T00:21:33;99765.81;;;11.50;61.72
51245;BME280;37840;47.562;18.738;2023-02-19T00:24:02;99772.19;;;11.47;61.90
51245;BME280;37840;47.562;18.738;2023-02-19T00:26:28;99767.59;;;11.49;62.17
51245;BME280;37840;47.562;18.738;2023-02-19T00:28:56;99768.47;;;11.50;62.49
51245;BME280;37840;47.562;18.738;2023-02-19T00:31:25;99767.94;;;11.45;62.98
51245;BME280;37840;47.562;18.738;2023-02-19T00:33:53;99765.28;;;11.45;63.11
51245;BME280;37840;47.562;18.738;2023-02-19T00:36:20;99766.47;;;11.40;63.34
51245;BME280;37840;47.562;18.738;2023-02-19T00:38:47;99758.38;;;11.42;63.27
51245;BME280;37840;47.562;18.738;2023-02-19T00:41:15;99765.53;;;11.41;63.19
51245;BME280;37840;47.562;18.738;2023-02-19T00:46:09;99761.25;;;11.39;62.73
51245;BME280;37840;47.562;18.738;2023-02-19T00:48:35;99765.37;;;11.43;62.37
51245;BME280;37840;47.562;18.738;2023-02-19T00:51:01;99757.09;;;11.48;61.80
51245;BME280;37840;47.562;18.738;2023-02-19T00:53:27;99763.00;;;11.51;61.70
51245;BME280;37840;47.562;18.738;2023-02-19T00:55:53;99756.75;;;11.52;61.63
51245;BME280;37840;47.562;18.738;2023-02-19T00:58:19;99760.13;;;11.54;61.29
51245;BME280;37840;47.562;18.738;2023-02-19T01:00:45;99766.06;;;11.58;61.38
51245;BME280;37840;47.562;18.738;2023-02-19T01:03:11;99754.34;;;11.60;61.22
51245;BME280;37840;47.562;18.738;2023-02-19T01:05:37;99755.31;;;11.59;61.25
51245;BME280;37840;47.562;18.738;2023-02-19T01:08:03;99755.41;;;11.58;61.44
51245;BME280;37840;47.562;18.738;2023-02-19T01:10:29;99749.34;;;11.56;61.67
51245;BME280;37840;47.562;18.738;2023-02-19T01:12:55;99751.41;;;11.52;61.71
51245;BME280;37840;47.562;18.738;2023-02-19T01:15:21;99758.78;;;11.49;61.71
51245;BME280;37840;47.562;18.738;2023-02-19T01:17:47;99751.63;;;11.49;61.65
51245;BME280;37840;47.562;18.738;2023-02-19T01:20:13;99748.13;;;11.49;61.66
51245;BME280;37840;47.562;18.738;2023-02-19T01:22:39;99762.50;;;11.46;61.91
51245;BME280;37840;47.562;18.738;2023-02-19T01:25:05;99754.88;;;11.41;62.04
51245;BME280;37840;47.562;18.738;2023-02-19T01:27:31;99779.19;;;11.37;62.22
51245;BME280;37840;47.562;18.738;2023-02-19T01:29:57;99781.94;;;11.35;62.10
51245;BME280;37840;47.562;18.738;2023-02-19T01:32:23;99780.37;;;11.33;61.92
51245;BME280;37840;47.562;18.738;2023-02-19T01:34:48;99792.22;;;11.29;61.96
51245;BME280;37840;47.562;18.738;2023-02-19T01:37:14;99785.06;;;11.29;61.99
51245;BME280;37840;47.562;18.738;2023-02-19T01:39:40;99787.28;;;11.35;62.10
51245;BME280;37840;47.562;18.738;2023-02-19T01:42:13;99785.81;;;11.31;62.61
51245;BME280;37840;47.562;18.738;2023-02-19T01:47:10;99776.72;;;11.34;63.17
51245;BME280;37840;47.562;18.738;2023-02-19T01:49:43;99769.09;;;11.29;63.29
51245;BME280;37840;47.562;18.738;2023-02-19T01:52:17;99770.91;;;11.29;63.29
51245;BME280;37840;47.562;18.738;2023-02-19T01:54:47;99763.75;;;11.29;63.15
51245;BME280;37840;47.562;18.738;2023-02-19T01:57:20;99761.59;;;11.34;63.12
51245;BME280;37840;47.562;18.738;2023-02-19T01:59:51;99746.59;;;11.33;63.28
51245;BME280;37840;47.562;18.738;2023-02-19T02:02:20;99752.03;;;11.32;63.50
51245;BME280;37840;47.562;18.738;2023-02-19T02:04:47;99745.97;;;11.30;63.68
51245;BME280;37840;47.562;18.738;2023-02-19T02:07:13;99739.91;;;11.28;64.11
51245;BME280;37840;47.562;18.738;2023-02-19T02:09:57;99747.69;;;11.31;64.37
51245;BME280;37840;47.562;18.738;2023-02-19T02:12:42;99743.66;;;11.25;64.71
51245;BME280;37840;47.562;18.738;2023-02-19T02:15:08;99762.75;;;11.19;65.05
51245;BME280;37840;47.562;18.738;2023-02-19T02:17:54;99749.22;;;11.22;64.96
51245;BME280;37840;47.562;18.738;2023-02-19T02:21:17;99744.00;;;11.20;65.14
51245;BME280;37840;47.562;18.738;2023-02-19T02:31:56;99752.81;;;11.21;65.83
51245;BME280;37840;47.562;18.738;2023-02-19T02:34:31;99742.41;;;11.18;66.61
51245;BME280;37840;47.562;18.738;2023-02-19T02:36:59;99737.19;;;11.16;66.96
51245;BME280;37840;47.562;18.738;2023-02-19T02:39:26;99732.97;;;11.14;67.02
51245;BME280;37840;47.562;18.738;2023-02-19T02:41:58;99736.56;;;11.13;67.23
51245;BME280;37840;47.562;18.738;2023-02-19T02:44:43;99727.75;;;11.12;67.15
51245;BME280;37840;47.562;18.738;2023-02-19T02:47:33;99735.09;;;11.09;67.41
51245;BME280;37840;47.562;18.738;2023-02-19T02:50:23;99736.41;;;11.03;67.64
51245;BME280;37840;47.562;18.738;2023-02-19T02:52:53;99741.84;;;11.01;67.75
51245;BME280;37840;47.562;18.738;2023-02-19T02:55:43;99733.97;;;11.00;67.80
51245;BME280;37840;47.562;18.738;2023-02-19T02:58:11;99723.56;;;10.97;67.58
51245;BME280;37840;47.562;18.738;2023-02-19T03:00:41;99721.84;;;10.96;66.93
51245;BME280;37840;47.562;18.738;2023-02-19T03:03:28;99719.28;;;10.94;66.75
51245;BME280;37840;47.562;18.738;2023-02-19T03:06:00;99724.59;;;10.94;66.50
51245;BME280;37840;47.562;18.738;2023-02-19T03:08:51;99727.41;;;10.93;66.28
51245;BME280;37840;47.562;18.738;2023-02-19T03:11:20;99734.53;;;10.92;66.27
51245;BME280;37840;47.562;18.738;2023-02-19T03:14:10;99736.97;;;10.95;66.10
51245;BME280;37840;47.562;18.738;2023-02-19T03:17:01;99735.38;;;10.93;66.02
51245;BME280;37840;47.562;18.738;2023-02-19T03:19:50;99737.19;;;10.92;65.94
51245;BME280;37840;47.562;18.738;2023-02-19T03:25:09;99721.22;;;10.92;64.94
51245;BME280;37840;47.562;18.738;2023-02-19T03:27:57;99723.75;;;10.94;64.70
51245;BME280;37840;47.562;18.738;2023-02-19T03:30:30;99739.22;;;10.89;64.40
51245;BME280;37840;47.562;18.738;2023-02-19T03:33:01;99743.91;;;10.85;64.55
51245;BME280;37840;47.562;18.738;2023-02-19T03:35:39;99745.62;;;10.86;64.56
51245;BME280;37840;47.562;18.738;2023-02-19T03:38:11;99741.87;;;10.89;64.49
51245;BME280;37840;47.562;18.738;2023-02-19T03:40:48;99747.19;;;10.89;64.50
51245;BME280;37840;47.562;18.738;2023-02-19T03:43:20;99744.44;;;10.90;64.35
51245;BME280;37840;47.562;18.738;2023-02-19T03:45:58;99744.66;;;10.87;64.55
51245;BME280;37840;47.562;18.738;2023-02-19T03:48:50;99759.53;;;10.90;64.25
51245;BME280;37840;47.562;18.738;2023-02-19T03:54:20;99746.47;;;10.87;64.41
51245;BME280;37840;47.562;18.738;2023-02-19T03:57:04;99743.56;;;10.90;64.13
51245;BME280;37840;47.562;18.738;2023-02-19T03:59:49;99757.75;;;10.90;64.02
51245;BME280;37840;47.562;18.738;2023-02-19T04:02:30;99745.28;;;10.91;64.05
51245;BME280;37840;47.562;18.738;2023-02-19T04:05:06;99755.69;;;10.94;63.92
51245;BME280;37840;47.562;18.738;2023-02-19T04:07:36;99766.66;;;10.89;64.02
51245;BME280;37840;47.562;18.738;2023-02-19T04:10:05;99763.91;;;10.91;64.19
51245;BME280;37840;47.562;18.738;2023-02-19T04:12:32;99759.53;;;10.90;65.07
51245;BME280;37840;47.562;18.738;2023-02-19T04:15:07;99748.16;;;10.88;65.71
51245;BME280;37840;47.562;18.738;2023-02-19T04:17:37;99758.19;;;10.84;66.23
51245;BME280;37840;47.562;18.738;2023-02-19T04:20:06;99757.31;;;10.84;66.40
51245;BME280;37840;47.562;18.738;2023-02-19T04:22:34;99759.34;;;10.80;66.70
51245;BME280;37840;47.562;18.738;2023-02-19T04:25:02;99773.84;;;10.76;67.06
51245;BME280;37840;47.562;18.738;2023-02-19T04:27:28;99778.50;;;10.72;67.33
51245;BME280;37840;47.562;18.738;2023-02-19T04:29:54;99778.84;;;10.68;67.63
51245;BME280;37840;47.562;18.738;2023-02-19T04:32:20;99774.81;;;10.62;68.02
51245;BME280;37840;47.562;18.738;2023-02-19T04:34:45;99770.44;;;10.61;68.29
51245;BME280;37840;47.562;18.738;2023-02-19T04:37:12;99774.28;;;10.57;68.58
51245;BME280;37840;47.562;18.738;2023-02-19T04:39:38;99780.44;;;10.57;68.67
51245;BME280;37840;47.562;18.738;2023-02-19T04:42:04;99782.47;;;10.54;68.87
51245;BME280;37840;47.562;18.738;2023-02-19T04:44:30;99777.16;;;10.54;69.06
51245;BME280;37840;47.562;18.738;2023-02-19T04:46:56;99782.59;;;10.52;69.35
51245;BME280;37840;47.562;18.738;2023-02-19T04:49:21;99777.47;;;10.49;70.09
51245;BME280;37840;47.562;18.738;2023-02-19T04:51:47;99775.56;;;10.51;70.26
51245;BME280;37840;47.562;18.738;2023-02-19T04:54:13;99771.22;;;10.50;70.71
51245;BME280;37840;47.562;18.738;2023-02-19T04:56:39;99767.47;;;10.53;70.83
51245;BME280;37840;47.562;18.738;2023-02-19T04:59:05;99769.91;;;10.56;70.89
51245;BME280;37840;47.562;18.738;2023-02-19T05:01:31;99767.91;;;10.59;70.97
51245;BME280;37840;47.562;18.738;2023-02-19T05:03:57;99750.25;;;10.58;71.11
51245;BME280;37840;47.562;18.738;2023-02-19T05:06:23;99751.09;;;10.59;71.16
51245;BME280;37840;47.562;18.738;2023-02-19T05:08:49;99752.03;;;10.58;71.09
51245;BME280;37840;47.562;18.738;2023-02-19T05:11:15;99744.94;;;10.58;70.96
51245;BME280;37840;47.562;18.738;2023-02-19T05:13:41;99748.53;;;10.57;70.78
51245;BME280;37840;47.562;18.738;2023-02-19T05:16:11;99747.78;;;10.55;70.77
51245;BME280;37840;47.562;18.738;2023-02-19T05:18:42;99753.34;;;10.52;70.85
51245;BME280;37840;47.562;18.738;2023-02-19T05:21:09;99766.84;;;10.49;71.26
51245;BME280;37840;47.562;18.738;2023-02-19T05:23:36;99761.66;;;10.48;71.49
51245;BME280;37840;47.562;18.738;2023-02-19T05:26:06;99754.84;;;10.44;71.69
51245;BME280;37840;47.562;18.738;2023-02-19T05:28:33;99755.03;;;10.40;71.92
51245;BME280;37840;47.562;18.738;2023-02-19T05:31:04;99759.00;;;10.35;72.33
51245;BME280;37840;47.562;18.738;2023-02-19T05:33:30;99760.28;;;10.29;72.71
51245;BME280;37840;47.562;18.738;2023-02-19T05:35:57;99765.66;;;10.28;72.96
51245;BME280;37840;47.562;18.738;2023-02-19T05:38:23;99759.81;;;10.23;73.21
51245;BME280;37840;47.562;18.738;2023-02-19T05:40:49;99758.22;;;10.20;73.44
51245;BME280;37840;47.562;18.738;2023-02-19T05:43:16;99759.28;;;10.17;73.70
51245;BME280;37840;47.562;18.738;2023-02-19T05:45:42;99763.00;;;10.15;74.00
51245;BME280;37840;47.562;18.738;2023-02-19T05:48:09;99756.94;;;10.13;74.27
51245;BME280;37840;47.562;18.738;2023-02-19T05:50:36;99757.78;;;10.13;74.75
51245;BME280;37840;47.562;18.738;2023-02-19T05:53:04;99761.72;;;10.08;75.33
51245;BME280;37840;47.562;18.738;2023-02-19T05:55:34;99762.56;;;10.08;75.56
51245;BME280;37840;47.562;18.738;2023-02-19T05:58:00;99758.31;;;10.06;75.87
51245;BME280;37840;47.562;18.738;2023-02-19T06:00:26;99759.25;;;10.05;76.20
51245;BME280;37840;47.562;18.738;2023-02-19T06:02:53;99765.66;;;10.02;76.56
51245;BME280;37840;47.562;18.738;2023-02-19T06:05:22;99759.69;;;9.98;77.19
51245;BME280;37840;47.562;18.738;2023-02-19T06:07:48;99765.00;;;9.98;77.28
51245;BME280;37840;47.562;18.738;2023-02-19T06:10:15;99768.62;;;9.97;77.52
51245;BME280;37840;47.562;18.738;2023-02-19T06:12:42;99765.31;;;9.94;78.03
51245;BME280;37840;47.562;18.738;2023-02-19T06:15:08;99756.41;;;9.95;78.12
51245;BME280;37840;47.562;18.738;2023-02-19T06:17:34;99755.34;;;9.97;78.06
51245;BME280;37840;47.562;18.738;2023-02-19T06:20:00;99755.34;;;9.97;78.15
51245;BME280;37840;47.562;18.738;2023-02-19T06:22:26;99747.47;;;9.96;78.31
51245;BME280;37840;47.562;18.738;2023-02-19T06:24:52;99757.16;;;9.97;78.49
51245;BME280;37840;47.562;18.738;2023-02-19T06:27:18;99747.47;;;9.96;78.65
51245;BME280;37840;47.562;18.738;2023-02-19T06:29:44;99753.34;;;10.01;78.60
51245;BME280;37840;47.562;18.738;2023-02-19T06:32:10;99749.72;;;10.02;78.52
51245;BME280;37840;47.562;18.738;2023-02-19T06:34:36;99741.00;;;10.00;78.63
51245;BME280;37840;47.562;18.738;2023-02-19T06:37:02;99752.28;;;10.04;78.35
51245;BME280;37840;47.562;18.738;2023-02-19T06:39:28;99749.50;;;10.05;78.24
51245;BME280;37840;47.562;18.738;2023-02-19T06:41:55;99751.84;;;10.10;77.95
51245;BME280;37840;47.562;18.738;2023-02-19T06:44:21;99758.84;;;10.11;77.89
51245;BME280;37840;47.562;18.738;2023-02-19T06:46:47;99757.03;;;10.11;77.82
51245;BME280;37840;47.562;18.738;2023-02-19T06:49:13;99765.00;;;10.11;77.82
51245;BME280;37840;47.562;18.738;2023-02-19T06:51:40;99753.44;;;10.12;77.78
51245;BME280;37840;47.562;18.738;2023-02-19T06:54:07;99756.75;;;10.16;77.65
51245;BME280;37840;47.562;18.738;2023-02-19T06:56:34;99755.56;;;10.20;77.50
51245;BME280;37840;47.562;18.738;2023-02-19T06:59:04;99766.06;;;10.21;77.59
51245;BME280;37840;47.562;18.738;2023-02-19T07:01:32;99758.75;;;10.25;77.40
51245;BME280;37840;47.562;18.738;2023-02-19T07:03:58;99767.28;;;10.30;77.25
51245;BME280;37840;47.562;18.738;2023-02-19T07:06:26;99768.66;;;10.36;77.00
51245;BME280;37840;47.562;18.738;2023-02-19T07:08:53;99766.66;;;10.39;77.05
51245;BME280;37840;47.562;18.738;2023-02-19T07:11:19;99765.69;;;10.40;77.13
51245;BME280;37840;47.562;18.738;2023-02-19T07:13:45;99772.47;;;10.45;77.08
51245;BME280;37840;47.562;18.738;2023-02-19T07:16:12;99760.78;;;10.47;76.98
51245;BME280;37840;47.562;18.738;2023-02-19T07:18:39;99766.00;;;10.49;76.93
51245;BME280;37840;47.562;18.738;2023-02-19T07:21:07;99762.50;;;10.48;76.92
51245;BME280;37840;47.562;18.738;2023-02-19T07:23:34;99765.06;;;10.50;76.80
51245;BME280;37840;47.562;18.738;2023-02-19T07:26:00;99760.34;;;10.53;76.57
51245;BME280;37840;47.562;18.738;2023-02-19T07:28:27;99762.91;;;10.55;76.40
51245;BME280;37840;47.562;18.738;2023-02-19T07:30:53;99755.88;;;10.54;76.26
51245;BME280;37840;47.562;18.738;2023-02-19T07:33:19;99755.78;;;10.55;76.24
51245;BME280;37840;47.562;18.738;2023-02-19T07:35:45;99757.34;;;10.58;76.24
51245;BME280;37840;47.562;18.738;2023-02-19T07:38:14;99750.25;;;10.58;76.12
51245;BME280;37840;47.562;18.738;2023-02-19T07:40:40;99755.25;;;10.63;75.96
51245;BME280;37840;47.562;18.738;2023-02-19T07:43:06;99759.47;;;10.66;75.69
51245;BME280;37840;47.562;18.738;2023-02-19T07:45:32;99755.75;;;10.68;75.37
51245;BME280;37840;47.562;18.738;2023-02-19T07:47:58;99760.97;;;10.70;75.31
51245;BME280;37840;47.562;18.738;2023-02-19T07:50:24;99771.38;;;10.73;75.41
51245;BME280;37840;47.562;18.738;2023-02-19T07:52:50;99771.50;;;10.71;75.75
51245;BME280;37840;47.562;18.738;2023-02-19T07:55:16;99775.84;;;10.72;75.94
51245;BME280;37840;47.562;18.738;2023-02-19T07:57:42;99777.56;;;10.73;76.56
51245;BME280;37840;47.562;18.738;2023-02-19T08:00:08;99784.69;;;10.73;77.26
51245;BME280;37840;47.562;18.738;2023-02-19T08:02:34;99779.59;;;10.70;78.94
51245;BME280;37840;47.562;18.738;2023-02-19T08:05:18;99786.81;;;10.68;79.90
51245;BME280;37840;47.562;18.738;2023-02-19T08:07:44;99793.97;;;10.67;81.31
51245;BME280;37840;47.562;18.738;2023-02-19T08:10:10;99798.62;;;10.64;82.15
51245;BME280;37840;47.562;18.738;2023-02-19T08:12:58;99788.31;;;10.59;83.27
51245;BME280;37840;47.562;18.738;2023-02-19T08:18:31;99810.34;;;10.48;85.46
51245;BME280;37840;47.562;18.738;2023-02-19T08:20:58;99802.47;;;10.47;86.17
51245;BME280;37840;47.562;18.738;2023-02-19T08:23:25;99792.16;;;10.42;86.66
51245;BME280;37840;47.562;18.738;2023-02-19T08:25:52;99792.16;;;10.42;87.05
51245;BME280;37840;47.562;18.738;2023-02-19T08:28:19;99794.91;;;10.40;87.59
51245;BME280;37840;47.562;18.738;2023-02-19T08:30:46;99794.91;;;10.40;87.80
51245;BME280;37840;47.562;18.738;2023-02-19T08:33:15;99785.25;;;10.39;87.97
51245;BME280;37840;47.562;18.738;2023-02-19T08:35:41;99783.62;;;10.37;87.97
51245;BME280;37840;47.562;18.738;2023-02-19T08:38:08;99784.38;;;10.39;88.02
51245;BME280;37840;47.562;18.738;2023-02-19T08:40:36;99784.50;;;10.37;88.29
51245;BME280;37840;47.562;18.738;2023-02-19T08:43:14;99783.62;;;10.37;88.28
51245;BME280;37840;47.562;18.738;2023-02-19T08:45:42;99783.97;;;10.32;88.85
51245;BME280;37840;47.562;18.738;2023-02-19T08:48:09;99777.91;;;10.30;89.36
51245;BME280;37840;47.562;18.738;2023-02-19T08:50:37;99785.69;;;10.33;89.35
51245;BME280;37840;47.562;18.738;2023-02-19T08:53:04;99769.94;;;10.30;89.39
51245;BME280;37840;47.562;18.738;2023-02-19T08:55:31;99782.28;;;10.31;89.59
51245;BME280;37840;47.562;18.738;2023-02-19T08:57:57;99791.09;;;10.32;89.90
51245;BME280;37840;47.562;18.738;2023-02-19T09:00:23;99783.03;;;10.33;90.03
51245;BME280;37840;47.562;18.738;2023-02-19T09:02:49;99779.72;;;10.30;90.52
51245;BME280;37840;47.562;18.738;2023-02-19T09:05:15;99782.44;;;10.28;90.94
51245;BME280;37840;47.562;18.738;2023-02-19T09:07:42;99787.97;;;10.25;91.38
51245;BME280;37840;47.562;18.738;2023-02-19T09:10:10;99788.19;;;10.22;91.68
51245;BME280;37840;47.562;18.738;2023-02-19T09:12:37;99787.47;;;10.20;91.85
51245;BME280;37840;47.562;18.738;2023-02-19T09:15:04;99778.75;;;10.18;92.22
51245;BME280;37840;47.562;18.738;2023-02-19T09:17:30;99785.09;;;10.15;92.19
51245;BME280;37840;47.562;18.738;2023-02-19T09:19:56;99776.50;;;10.12;92.62
51245;BME280;37840;47.562;18.738;2023-02-19T09:22:22;99782.00;;;10.09;93.05
51245;BME280;37840;47.562;18.738;2023-02-19T09:24:47;99781.25;;;10.07;93.37
51245;BME280;37840;47.562;18.738;2023-02-19T09:27:15;99781.25;;;10.07;93.50
51245;BME280;37840;47.562;18.738;2023-02-19T09:29:42;99774.13;;;10.07;93.75
51245;BME280;37840;47.562;18.738;2023-02-19T09:32:08;99770.78;;;10.05;94.01
51245;BME280;37840;47.562;18.738;2023-02-19T09:34:33;99777.34;;;10.12;93.92
51245;BME280;37840;47.562;18.738;2023-02-19T09:36:59;99766.91;;;10.09;93.94
51245;BME280;37840;47.562;18.738;2023-02-19T09:39:25;99765.00;;;10.11;94.38
51245;BME280;37840;47.562;18.738;2023-02-19T09:41:54;99769.16;;;10.15;94.65
51245;BME280;37840;47.562;18.738;2023-02-19T09:44:31;99763.53;;;10.20;94.85
51245;BME280;37840;47.562;18.738;2023-02-19T09:46:59;99762.94;;;10.29;94.82
51245;BME280;37840;47.562;18.738;2023-02-19T09:52:02;99762.94;;;10.29;94.44
51245;BME280;37840;47.562;18.738;2023-02-19T09:54:32;99747.50;;;10.34;94.67
51245;BME280;37840;47.562;18.738;2023-02-19T09:57:00;99754.53;;;10.48;93.88
51245;BME280;37840;47.562;18.738;2023-02-19T09:59:39;99756.19;;;10.62;91.63
51245;BME280;37840;47.562;18.738;2023-02-19T10:02:19;99750.63;;;10.78;89.87
51245;BME280;37840;47.562;18.738;2023-02-19T10:04:47;99738.03;;;10.93;87.69
51245;BME280;37840;47.562;18.738;2023-02-19T10:07:17;99724.91;;;11.02;88.26
51245;BME280;37840;47.562;18.738;2023-02-19T10:10:17;99730.44;;;11.23;88.91
51245;BME280;37840;47.562;18.738;2023-02-19T10:12:47;99721.97;;;11.54;88.75
51245;BME280;37840;47.562;18.738;2023-02-19T10:15:37;99721.22;;;11.87;88.14
51245;BME280;37840;47.562;18.738;2023-02-19T10:18:05;99725.44;;;12.25;87.29
51245;BME280;37840;47.562;18.738;2023-02-19T10:20:32;99716.97;;;12.65;85.43
51245;BME280;37840;47.562;18.738;2023-02-19T10:23:03;99714.72;;;12.93;81.03
51245;BME280;37840;47.562;18.738;2023-02-19T10:25:31;99711.41;;;13.12;78.84
51245;BME280;37840;47.562;18.738;2023-02-19T10:27:58;99707.25;;;13.19;77.11
51245;BME280;37840;47.562;18.738;2023-02-19T10:30:31;99702.38;;;13.24;74.92
51245;BME280;37840;47.562;18.738;2023-02-19T10:33:18;99686.88;;;13.18;74.31
51245;BME280;37840;47.562;18.738;2023-02-19T10:35:57;99705.91;;;13.13;74.58
51245;BME280;37840;47.562;18.738;2023-02-19T10:38:30;99689.66;;;13.16;73.32
51245;BME280;37840;47.562;18.738;2023-02-19T10:41:20;99692.06;;;13.31;72.16
51245;BME280;37840;47.562;18.738;2023-02-19T10:44:08;99688.94;;;13.46;71.55
51245;BME280;37840;47.562;18.738;2023-02-19T10:46:44;99678.78;;;13.61;69.46
51245;BME280;37840;47.562;18.738;2023-02-19T10:51:41;99667.69;;;13.87;69.80
51245;BME280;37840;47.562;18.738;2023-02-19T10:54:19;99679.75;;;14.02;68.63
51245;BME280;37840;47.562;18.738;2023-02-19T10:56:46;99670.53;;;14.16;66.37
51245;BME280;37840;47.562;18.738;2023-02-19T11:04:20;99652.47;;;14.49;65.78
51245;BME280;37840;47.562;18.738;2023-02-19T11:06:47;99654.66;;;14.55;64.50
51245;BME280;37840;47.562;18.738;2023-02-19T11:09:32;99656.34;;;14.66;64.02
51245;BME280;37840;47.562;18.738;2023-02-19T11:12:00;99637.91;;;14.63;62.85
51245;BME280;37840;47.562;18.738;2023-02-19T11:14:29;99639.50;;;14.44;62.79
51245;BME280;37840;47.562;18.738;2023-02-19T11:16:58;99650.16;;;14.25;63.07
51245;BME280;37840;47.562;18.738;2023-02-19T11:19:42;99649.63;;;14.31;64.41
51245;BME280;37840;47.562;18.738;2023-02-19T11:22:29;99644.31;;;14.41;63.41
51245;BME280;37840;47.562;18.738;2023-02-19T11:25:04;99642.22;;;14.54;63.87
51245;BME280;37840;47.562;18.738;2023-02-19T11:27:31;99633.50;;;14.52;62.18
51245;BME280;37840;47.562;18.738;2023-02-19T11:32:55;99633.44;;;14.73;61.95
51245;BME280;37840;47.562;18.738;2023-02-19T11:35:22;99645.72;;;14.85;60.83
51245;BME280;37840;47.562;18.738;2023-02-19T11:37:54;99642.75;;;14.88;60.79
51245;BME280;37840;47.562;18.738;2023-02-19T11:57:49;99598.91;;;14.99;59.24
51245;BME280;37840;47.562;18.738;2023-02-19T12:00:28;99601.47;;;15.01;57.77
51245;BME280;37840;47.562;18.738;2023-02-19T12:11:43;99603.56;;;14.97;56.27
51245;BME280;37840;47.562;18.738;2023-02-19T12:22:32;99597.09;;;14.71;57.99
51245;BME280;37840;47.562;18.738;2023-02-19T12:27:47;99592.56;;;14.61;58.26
51245;BME280;37840;47.562;18.738;2023-02-19T12:35:25;99585.12;;;14.24;59.73
51245;BME280;37840;47.562;18.738;2023-02-19T12:38:38;99588.06;;;14.21;59.21
51245;BME280;37840;47.562;18.738;2023-02-19T12:40:53;99597.34;;;14.17;59.70
51245;BME280;37840;47.562;18.738;2023-02-19T12:43:23;99575.56;;;14.22;59.82
51245;BME280;37840;47.562;18.738;2023-02-19T12:46:00;99570.75;;;14.25;60.02
51245;BME280;37840;47.562;18.738;2023-02-19T12:48:51;99571.91;;;14.33;60.20
51245;BME280;37840;47.562;18.738;2023-02-19T12:51:24;99576.72;;;14.39;59.97
51245;BME280;37840;47.562;18.738;2023-02-19T12:54:00;99577.16;;;14.44;58.28
51245;BME280;37840;47.562;18.738;2023-02-19T13:02:34;99563.22;;;14.50;57.60
51245;BME280;37840;47.562;18.738;2023-02-19T13:05:05;99574.63;;;14.52;57.17
51245;BME280;37840;47.562;18.738;2023-02-19T13:12:39;99556.31;;;14.47;56.33
51245;BME280;37840;47.562;18.738;2023-02-19T13:15:17;99557.03;;;14.50;57.53
51245;BME280;37840;47.562;18.738;2023-02-19T13:17:51;99559.66;;;14.40;57.93
51245;BME280;37840;47.562;18.738;2023-02-19T13:23:32;99550.09;;;14.37;59.09
51245;BME280;37840;47.562;18.738;2023-02-19T13:31:56;99545.97;;;14.14;58.92
51245;BME280;37840;47.562;18.738;2023-02-19T13:37:18;99546.00;;;13.83;64.08
51245;BME280;37840;47.562;18.738;2023-02-19T13:39:52;99546.81;;;13.74;64.75
51245;BME280;37840;47.562;18.738;2023-02-19T13:42:32;99543.00;;;13.66;64.31
51245;BME280;37840;47.562;18.738;2023-02-19T13:45:01;99531.84;;;13.61;63.25
51245;BME280;37840;47.562;18.738;2023-02-19T13:52:55;99582.50;;;13.42;65.04
51245;BME280;37840;47.562;18.738;2023-02-19T14:01:08;99641.34;;;12.87;70.85
51245;BME280;37840;47.562;18.738;2023-02-19T14:03:52;99652.59;;;12.58;72.87
51245;BME280;37840;47.562;18.738;2023-02-19T14:06:19;99652.72;;;12.34;74.83
51245;BME280;37840;47.562;18.738;2023-02-19T14:08:57;99638.69;;;12.21;76.50
51245;BME280;37840;47.562;18.738;2023-02-19T14:22:46;99667.56;;;11.80;77.73
51245;BME280;37840;47.562;18.738;2023-02-19T14:27:50;99687.87;;;11.94;75.86
51245;BME280;37840;47.562;18.738;2023-02-19T14:30:17;99689.63;;;11.82;75.38
51245;BME280;37840;47.562;18.738;2023-02-19T14:32:43;99683.44;;;11.82;75.40
51245;BME280;37840;47.562;18.738;2023-02-19T14:35:20;99693.59;;;11.77;74.63
51245;BME280;37840;47.562;18.738;2023-02-19T14:37:48;99687.31;;;11.78;75.31
51245;BME280;37840;47.562;18.738;2023-02-19T14:40:22;99680.87;;;11.69;75.46
51245;BME280;37840;47.562;18.738;2023-02-19T14:42:50;99687.28;;;11.67;75.99
51245;BME280;37840;47.562;18.738;2023-02-19T14:45:18;99683.28;;;11.61;75.15
51245;BME280;37840;47.562;18.738;2023-02-19T14:47:45;99686.06;;;11.59;74.72
51245;BME280;37840;47.562;18.738;2023-02-19T14:50:21;99686.53;;;11.53;74.29
51245;BME280;37840;47.562;18.738;2023-02-19T14:52:53;99688.59;;;11.50;75.03
51245;BME280;37840;47.562;18.738;2023-02-19T14:55:26;99689.88;;;11.44;74.04
51245;BME280;37840;47.562;18.738;2023-02-19T14:57:55;99696.87;;;11.34;74.32
51245;BME280;37840;47.562;18.738;2023-02-19T15:00:27;99709.78;;;11.27;75.42
51245;BME280;37840;47.562;18.738;2023-02-19T15:02:55;99711.66;;;11.14;77.32
51245;BME280;37840;47.562;18.738;2023-02-19T15:05:34;99714.09;;;10.93;78.61
51245;BME280;37840;47.562;18.738;2023-02-19T15:08:14;99715.72;;;10.82;79.29
51245;BME280;37840;47.562;18.738;2023-02-19T15:10:43;99709.91;;;10.77;79.79
51245;BME280;37840;47.562;18.738;2023-02-19T15:13:10;99714.56;;;10.74;79.62